sensor_id;sensor_type;location;lat;lon;timestamp;P1;durP1;ratioP1;P2;durP2;ratioP2
65583;SDS011;62116;43.582;1.470;2022-11-20T00:00:07;5.45;;;2.25;;
65583;SDS011;62116;43.582;1.470;2022-11-20T00:02:33;5.63;;;2.20;;
65583;SDS011;62116;43.582;1.470;2022-11-20T00:04:58;6.45;;;2.42;;
65583;SDS011;62116;43.582;1.470;2022-11-20T00:07:24;4.10;;;2.10;;
65583;SDS011;62116;43.582;1.470;2022-11-20T00:09:49;5.95;;;2.40;;
65583;SDS011;62116;43.582;1.470;2022-11-20T00:12:15;5.13;;;2.45;;
65583;SDS011;62116;43.582;1.470;2022-11-20T00:14:41;4.70;;;2.30;;
65583;SDS011;62116;43.582;1.470;2022-11-20T00:17:06;4.25;;;2.08;;
65583;SDS011;62116;43.582;1.470;2022-11-20T00:19:32;6.45;;;2.25;;
65583;SDS011;62116;43.582;1.470;2022-11-20T00:21:57;4.57;;;1.95;;
65583;SDS011;62116;43.582;1.470;2022-11-20T00:24:23;4.60;;;2.17;;
65583;SDS011;62116;43.582;1.470;2022-11-20T00:26:48;4.28;;;2.03;;
65583;SDS011;62116;43.582;1.470;2022-11-20T00:29:14;4.90;;;1.88;;
65583;SDS011;62116;43.582;1.470;2022-11-20T00:31:39;5.30;;;2.10;;
65583;SDS011;62116;43.582;1.470;2022-11-20T00:34:04;5.55;;;2.38;;
65583;SDS011;62116;43.582;1.470;2022-11-20T00:36:31;5.25;;;2.10;;
65583;SDS011;62116;43.582;1.470;2022-11-20T00:38:58;5.15;;;2.33;;
65583;SDS011;62116;43.582;1.470;2022-11-20T00:41:24;6.22;;;1.98;;
65583;SDS011;62116;43.582;1.470;2022-11-20T00:43:52;4.93;;;2.00;;
65583;SDS011;62116;43.582;1.470;2022-11-20T00:46:19;6.90;;;2.10;;
65583;SDS011;62116;43.582;1.470;2022-11-20T00:48:46;3.40;;;1.80;;
65583;SDS011;62116;43.582;1.470;2022-11-20T00:51:16;3.25;;;1.77;;
65583;SDS011;62116;43.582;1.470;2022-11-20T00:53:43;2.63;;;1.60;;
65583;SDS011;62116;43.582;1.470;2022-11-20T00:56:10;2.80;;;1.70;;
65583;SDS011;62116;43.582;1.470;2022-11-20T00:58:38;3.65;;;1.50;;
65583;SDS011;62116;43.582;1.470;2022-11-20T01:01:06;4.22;;;1.50;;
65583;SDS011;62116;43.582;1.470;2022-11-20T01:03:51;2.60;;;1.48;;
65583;SDS011;62116;43.582;1.470;2022-11-20T01:06:18;3.22;;;1.67;;
65583;SDS011;62116;43.582;1.470;2022-11-20T01:08:46;3.00;;;1.40;;
65583;SDS011;62116;43.582;1.470;2022-11-20T01:11:13;4.20;;;1.45;;
65583;SDS011;62116;43.582;1.470;2022-11-20T01:13:40;4.32;;;1.50;;
65583;SDS011;62116;43.582;1.470;2022-11-20T01:16:13;2.85;;;1.55;;
65583;SDS011;62116;43.582;1.470;2022-11-20T01:18:45;2.90;;;1.60;;
65583;SDS011;62116;43.582;1.470;2022-11-20T01:21:17;4.00;;;1.40;;
65583;SDS011;62116;43.582;1.470;2022-11-20T01:23:44;3.08;;;1.50;;
65583;SDS011;62116;43.582;1.470;2022-11-20T01:26:11;2.90;;;1.40;;
65583;SDS011;62116;43.582;1.470;2022-11-20T01:28:38;2.60;;;1.50;;
65583;SDS011;62116;43.582;1.470;2022-11-20T01:31:15;2.75;;;1.40;;
65583;SDS011;62116;43.582;1.470;2022-11-20T01:33:42;2.58;;;1.48;;
65583;SDS011;62116;43.582;1.470;2022-11-20T01:36:09;4.20;;;1.75;;
65583;SDS011;62116;43.582;1.470;2022-11-20T01:38:35;5.85;;;1.98;;
65583;SDS011;62116;43.582;1.470;2022-11-20T01:41:01;4.40;;;2.55;;
65583;SDS011;62116;43.582;1.470;2022-11-20T01:43:27;4.38;;;2.75;;
65583;SDS011;62116;43.582;1.470;2022-11-20T01:46:08;4.70;;;3.13;;
65583;SDS011;62116;43.582;1.470;2022-11-20T01:48:48;5.10;;;3.13;;
65583;SDS011;62116;43.582;1.470;2022-11-20T01:51:54;4.57;;;3.20;;
65583;SDS011;62116;43.582;1.470;2022-11-20T01:54:27;5.97;;;3.00;;
65583;SDS011;62116;43.582;1.470;2022-11-20T01:56:57;5.82;;;3.30;;
65583;SDS011;62116;43.582;1.470;2022-11-20T01:59:25;3.88;;;2.75;;
65583;SDS011;62116;43.582;1.470;2022-11-20T02:01:52;3.88;;;2.70;;
65583;SDS011;62116;43.582;1.470;2022-11-20T02:04:18;3.88;;;2.67;;
65583;SDS011;62116;43.582;1.470;2022-11-20T02:06:58;4.50;;;2.13;;
65583;SDS011;62116;43.582;1.470;2022-11-20T02:09:26;3.08;;;2.10;;
65583;SDS011;62116;43.582;1.470;2022-11-20T02:11:51;5.05;;;1.90;;
65583;SDS011;62116;43.582;1.470;2022-11-20T02:14:18;2.80;;;1.70;;
65583;SDS011;62116;43.582;1.470;2022-11-20T02:16:45;3.13;;;1.58;;
65583;SDS011;62116;43.582;1.470;2022-11-20T02:19:19;4.55;;;1.90;;
65583;SDS011;62116;43.582;1.470;2022-11-20T02:24:25;3.40;;;1.58;;
65583;SDS011;62116;43.582;1.470;2022-11-20T02:26:51;2.47;;;1.48;;
65583;SDS011;62116;43.582;1.470;2022-11-20T02:29:30;2.90;;;1.60;;
65583;SDS011;62116;43.582;1.470;2022-11-20T02:32:00;2.95;;;1.67;;
65583;SDS011;62116;43.582;1.470;2022-11-20T02:34:27;4.53;;;1.58;;
65583;SDS011;62116;43.582;1.470;2022-11-20T02:36:53;2.38;;;1.45;;
65583;SDS011;62116;43.582;1.470;2022-11-20T02:39:20;3.97;;;1.60;;
65583;SDS011;62116;43.582;1.470;2022-11-20T02:41:50;3.95;;;1.55;;
65583;SDS011;62116;43.582;1.470;2022-11-20T02:44:18;3.28;;;1.65;;
65583;SDS011;62116;43.582;1.470;2022-11-20T02:46:44;5.15;;;1.67;;
65583;SDS011;62116;43.582;1.470;2022-11-20T02:49:10;3.30;;;1.60;;
65583;SDS011;62116;43.582;1.470;2022-11-20T02:51:35;3.85;;;1.60;;
65583;SDS011;62116;43.582;1.470;2022-11-20T02:54:01;3.40;;;1.75;;
65583;SDS011;62116;43.582;1.470;2022-11-20T02:56:27;3.75;;;1.80;;
65583;SDS011;62116;43.582;1.470;2022-11-20T02:58:52;4.15;;;1.80;;
65583;SDS011;62116;43.582;1.470;2022-11-20T03:01:18;4.75;;;2.00;;
65583;SDS011;62116;43.582;1.470;2022-11-20T03:03:43;4.18;;;2.10;;
65583;SDS011;62116;43.582;1.470;2022-11-20T03:06:09;5.50;;;1.90;;
65583;SDS011;62116;43.582;1.470;2022-11-20T03:08:34;4.00;;;1.90;;
65583;SDS011;62116;43.582;1.470;2022-11-20T03:11:07;4.55;;;1.90;;
65583;SDS011;62116;43.582;1.470;2022-11-20T03:13:33;5.13;;;1.98;;
65583;SDS011;62116;43.582;1.470;2022-11-20T03:16:05;6.30;;;2.20;;
65583;SDS011;62116;43.582;1.470;2022-11-20T03:18:34;3.88;;;2.30;;
65583;SDS011;62116;43.582;1.470;2022-11-20T03:21:00;4.10;;;2.17;;
65583;SDS011;62116;43.582;1.470;2022-11-20T03:23:25;4.57;;;2.20;;
65583;SDS011;62116;43.582;1.470;2022-11-20T03:25:53;5.13;;;2.17;;
65583;SDS011;62116;43.582;1.470;2022-11-20T03:28:18;5.15;;;2.38;;
65583;SDS011;62116;43.582;1.470;2022-11-20T03:30:44;3.97;;;2.38;;
65583;SDS011;62116;43.582;1.470;2022-11-20T03:33:09;5.28;;;2.20;;
65583;SDS011;62116;43.582;1.470;2022-11-20T03:35:35;3.25;;;2.08;;
65583;SDS011;62116;43.582;1.470;2022-11-20T03:38:00;4.43;;;2.10;;
65583;SDS011;62116;43.582;1.470;2022-11-20T03:40:26;4.82;;;2.13;;
65583;SDS011;62116;43.582;1.470;2022-11-20T03:42:51;3.92;;;2.20;;
65583;SDS011;62116;43.582;1.470;2022-11-20T03:45:17;4.10;;;2.45;;
65583;SDS011;62116;43.582;1.470;2022-11-20T03:47:43;4.05;;;2.08;;
65583;SDS011;62116;43.582;1.470;2022-11-20T03:50:10;4.70;;;2.50;;
65583;SDS011;62116;43.582;1.470;2022-11-20T03:52:40;3.50;;;2.20;;
65583;SDS011;62116;43.582;1.470;2022-11-20T03:55:06;4.57;;;2.08;;
65583;SDS011;62116;43.582;1.470;2022-11-20T03:57:32;5.28;;;2.25;;
65583;SDS011;62116;43.582;1.470;2022-11-20T03:59:57;5.35;;;2.13;;
65583;SDS011;62116;43.582;1.470;2022-11-20T04:02:23;3.47;;;2.03;;
65583;SDS011;62116;43.582;1.470;2022-11-20T04:04:48;4.25;;;2.00;;
65583;SDS011;62116;43.582;1.470;2022-11-20T04:07:14;4.03;;;2.05;;
65583;SDS011;62116;43.582;1.470;2022-11-20T04:09:39;5.47;;;2.30;;
65583;SDS011;62116;43.582;1.470;2022-11-20T04:12:04;5.38;;;2.40;;
65583;SDS011;62116;43.582;1.470;2022-11-20T04:14:30;5.93;;;2.30;;
65583;SDS011;62116;43.582;1.470;2022-11-20T04:16:55;6.45;;;2.15;;
65583;SDS011;62116;43.582;1.470;2022-11-20T04:19:21;3.70;;;2.20;;
65583;SDS011;62116;43.582;1.470;2022-11-20T04:21:46;5.82;;;1.90;;
65583;SDS011;62116;43.582;1.470;2022-11-20T04:24:12;4.18;;;1.92;;
65583;SDS011;62116;43.582;1.470;2022-11-20T04:26:37;5.28;;;2.22;;
65583;SDS011;62116;43.582;1.470;2022-11-20T04:29:03;4.05;;;1.85;;
65583;SDS011;62116;43.582;1.470;2022-11-20T04:31:30;5.65;;;2.10;;
65583;SDS011;62116;43.582;1.470;2022-11-20T04:34:04;3.42;;;1.55;;
65583;SDS011;62116;43.582;1.470;2022-11-20T04:36:31;5.15;;;2.28;;
65583;SDS011;62116;43.582;1.470;2022-11-20T04:39:00;2.92;;;1.70;;
65583;SDS011;62116;43.582;1.470;2022-11-20T04:41:28;3.90;;;1.80;;
65583;SDS011;62116;43.582;1.470;2022-11-20T04:43:56;4.10;;;1.77;;
65583;SDS011;62116;43.582;1.470;2022-11-20T04:46:33;2.83;;;1.58;;
65583;SDS011;62116;43.582;1.470;2022-11-20T04:51:26;3.47;;;1.77;;
65583;SDS011;62116;43.582;1.470;2022-11-20T04:53:52;3.72;;;1.80;;
65583;SDS011;62116;43.582;1.470;2022-11-20T04:56:18;3.45;;;1.70;;
65583;SDS011;62116;43.582;1.470;2022-11-20T04:58:43;4.72;;;2.08;;
65583;SDS011;62116;43.582;1.470;2022-11-20T05:03:39;2.95;;;1.77;;
65583;SDS011;62116;43.582;1.470;2022-11-20T05:06:05;3.88;;;1.50;;
65583;SDS011;62116;43.582;1.470;2022-11-20T05:08:32;3.65;;;1.80;;
65583;SDS011;62116;43.582;1.470;2022-11-20T05:11:08;3.22;;;1.60;;
65583;SDS011;62116;43.582;1.470;2022-11-20T05:13:36;3.25;;;1.92;;
65583;SDS011;62116;43.582;1.470;2022-11-20T05:16:06;4.03;;;1.58;;
65583;SDS011;62116;43.582;1.470;2022-11-20T05:18:36;3.35;;;1.77;;
65583;SDS011;62116;43.582;1.470;2022-11-20T05:21:02;5.07;;;1.90;;
65583;SDS011;62116;43.582;1.470;2022-11-20T05:23:29;4.15;;;1.80;;
65583;SDS011;62116;43.582;1.470;2022-11-20T05:25:56;2.45;;;1.52;;
65583;SDS011;62116;43.582;1.470;2022-11-20T05:28:22;3.42;;;1.70;;
65583;SDS011;62116;43.582;1.470;2022-11-20T05:30:48;4.22;;;2.00;;
65583;SDS011;62116;43.582;1.470;2022-11-20T05:33:14;3.20;;;1.60;;
65583;SDS011;62116;43.582;1.470;2022-11-20T05:35:40;4.97;;;1.80;;
65583;SDS011;62116;43.582;1.470;2022-11-20T05:38:05;3.67;;;1.70;;
65583;SDS011;62116;43.582;1.470;2022-11-20T05:40:31;3.47;;;1.95;;
65583;SDS011;62116;43.582;1.470;2022-11-20T05:42:56;4.15;;;1.80;;
65583;SDS011;62116;43.582;1.470;2022-11-20T05:45:22;3.28;;;1.83;;
65583;SDS011;62116;43.582;1.470;2022-11-20T05:47:47;3.47;;;1.90;;
65583;SDS011;62116;43.582;1.470;2022-11-20T05:50:13;4.78;;;2.00;;
65583;SDS011;62116;43.582;1.470;2022-11-20T05:52:39;2.90;;;2.05;;
65583;SDS011;62116;43.582;1.470;2022-11-20T05:55:05;4.93;;;1.73;;
65583;SDS011;62116;43.582;1.470;2022-11-20T05:57:31;3.38;;;1.70;;
65583;SDS011;62116;43.582;1.470;2022-11-20T05:59:57;3.42;;;1.77;;
65583;SDS011;62116;43.582;1.470;2022-11-20T06:02:22;4.05;;;1.92;;
65583;SDS011;62116;43.582;1.470;2022-11-20T06:04:48;5.38;;;2.03;;
65583;SDS011;62116;43.582;1.470;2022-11-20T06:07:13;3.90;;;1.85;;
65583;SDS011;62116;43.582;1.470;2022-11-20T06:09:39;3.60;;;2.03;;
65583;SDS011;62116;43.582;1.470;2022-11-20T06:12:05;4.38;;;1.90;;
65583;SDS011;62116;43.582;1.470;2022-11-20T06:14:30;3.60;;;1.98;;
65583;SDS011;62116;43.582;1.470;2022-11-20T06:16:56;3.28;;;2.10;;
65583;SDS011;62116;43.582;1.470;2022-11-20T06:19:21;4.60;;;2.28;;
65583;SDS011;62116;43.582;1.470;2022-11-20T06:21:47;3.80;;;2.00;;
65583;SDS011;62116;43.582;1.470;2022-11-20T06:24:14;5.25;;;2.00;;
65583;SDS011;62116;43.582;1.470;2022-11-20T06:26:39;5.38;;;2.60;;
65583;SDS011;62116;43.582;1.470;2022-11-20T06:29:05;4.68;;;2.70;;
65583;SDS011;62116;43.582;1.470;2022-11-20T06:31:30;4.93;;;2.72;;
65583;SDS011;62116;43.582;1.470;2022-11-20T06:34:00;6.85;;;2.92;;
65583;SDS011;62116;43.582;1.470;2022-11-20T06:36:26;5.28;;;3.30;;
65583;SDS011;62116;43.582;1.470;2022-11-20T06:38:52;5.97;;;3.05;;
65583;SDS011;62116;43.582;1.470;2022-11-20T06:41:18;5.47;;;3.13;;
65583;SDS011;62116;43.582;1.470;2022-11-20T06:43:45;5.40;;;3.00;;
65583;SDS011;62116;43.582;1.470;2022-11-20T06:46:11;4.97;;;3.10;;
65583;SDS011;62116;43.582;1.470;2022-11-20T06:48:38;4.82;;;2.92;;
65583;SDS011;62116;43.582;1.470;2022-11-20T06:51:04;5.40;;;3.35;;
65583;SDS011;62116;43.582;1.470;2022-11-20T06:53:31;5.82;;;3.60;;
65583;SDS011;62116;43.582;1.470;2022-11-20T06:55:57;12.18;;;5.57;;
65583;SDS011;62116;43.582;1.470;2022-11-20T06:58:22;18.27;;;6.05;;
65583;SDS011;62116;43.582;1.470;2022-11-20T07:00:48;10.82;;;5.75;;
65583;SDS011;62116;43.582;1.470;2022-11-20T07:03:14;12.65;;;6.10;;
65583;SDS011;62116;43.582;1.470;2022-11-20T07:05:39;14.02;;;6.20;;
65583;SDS011;62116;43.582;1.470;2022-11-20T07:08:05;8.80;;;4.75;;
65583;SDS011;62116;43.582;1.470;2022-11-20T07:10:31;7.10;;;3.97;;
65583;SDS011;62116;43.582;1.470;2022-11-20T07:12:57;8.30;;;4.68;;
65583;SDS011;62116;43.582;1.470;2022-11-20T07:15:23;10.77;;;4.47;;
65583;SDS011;62116;43.582;1.470;2022-11-20T07:17:49;6.95;;;4.13;;
65583;SDS011;62116;43.582;1.470;2022-11-20T07:20:15;6.82;;;4.25;;
65583;SDS011;62116;43.582;1.470;2022-11-20T07:22:40;8.57;;;4.13;;
65583;SDS011;62116;43.582;1.470;2022-11-20T07:25:06;10.23;;;3.95;;
65583;SDS011;62116;43.582;1.470;2022-11-20T07:27:32;8.48;;;4.10;;
65583;SDS011;62116;43.582;1.470;2022-11-20T07:29:57;7.22;;;4.13;;
65583;SDS011;62116;43.582;1.470;2022-11-20T07:32:23;9.00;;;4.70;;
65583;SDS011;62116;43.582;1.470;2022-11-20T07:34:49;6.75;;;3.90;;
65583;SDS011;62116;43.582;1.470;2022-11-20T07:37:15;11.73;;;4.32;;
65583;SDS011;62116;43.582;1.470;2022-11-20T07:39:40;8.77;;;4.30;;
65583;SDS011;62116;43.582;1.470;2022-11-20T07:42:06;6.72;;;4.00;;
65583;SDS011;62116;43.582;1.470;2022-11-20T07:44:33;7.90;;;4.18;;
65583;SDS011;62116;43.582;1.470;2022-11-20T07:46:58;10.43;;;3.92;;
65583;SDS011;62116;43.582;1.470;2022-11-20T07:49:24;8.75;;;4.35;;
65583;SDS011;62116;43.582;1.470;2022-11-20T07:51:52;6.97;;;3.72;;
65583;SDS011;62116;43.582;1.470;2022-11-20T07:54:19;6.47;;;3.83;;
65583;SDS011;62116;43.582;1.470;2022-11-20T07:56:45;8.25;;;3.97;;
65583;SDS011;62116;43.582;1.470;2022-11-20T07:59:12;9.45;;;3.85;;
65583;SDS011;62116;43.582;1.470;2022-11-20T08:01:38;11.15;;;4.57;;
65583;SDS011;62116;43.582;1.470;2022-11-20T08:04:04;8.40;;;4.50;;
65583;SDS011;62116;43.582;1.470;2022-11-20T08:06:29;15.00;;;4.68;;
65583;SDS011;62116;43.582;1.470;2022-11-20T08:08:55;8.20;;;4.43;;
65583;SDS011;62116;43.582;1.470;2022-11-20T08:11:20;11.00;;;4.57;;
65583;SDS011;62116;43.582;1.470;2022-11-20T08:14:05;6.93;;;3.60;;
65583;SDS011;62116;43.582;1.470;2022-11-20T08:16:41;7.72;;;4.32;;
65583;SDS011;62116;43.582;1.470;2022-11-20T08:19:11;7.38;;;3.97;;
65583;SDS011;62116;43.582;1.470;2022-11-20T08:21:37;7.65;;;4.35;;
65583;SDS011;62116;43.582;1.470;2022-11-20T08:24:03;8.90;;;4.55;;
65583;SDS011;62116;43.582;1.470;2022-11-20T08:26:28;9.20;;;4.25;;
65583;SDS011;62116;43.582;1.470;2022-11-20T08:28:54;8.18;;;4.47;;
65583;SDS011;62116;43.582;1.470;2022-11-20T08:31:21;11.40;;;4.68;;
65583;SDS011;62116;43.582;1.470;2022-11-20T08:33:48;8.77;;;4.90;;
65583;SDS011;62116;43.582;1.470;2022-11-20T08:36:13;8.55;;;4.47;;
65583;SDS011;62116;43.582;1.470;2022-11-20T08:38:39;8.63;;;4.75;;
65583;SDS011;62116;43.582;1.470;2022-11-20T08:41:04;11.48;;;4.70;;
65583;SDS011;62116;43.582;1.470;2022-11-20T08:43:48;8.27;;;4.55;;
65583;SDS011;62116;43.582;1.470;2022-11-20T08:46:15;7.93;;;4.55;;
65583;SDS011;62116;43.582;1.470;2022-11-20T08:48:41;7.68;;;3.90;;
65583;SDS011;62116;43.582;1.470;2022-11-20T08:51:07;7.50;;;3.97;;
65583;SDS011;62116;43.582;1.470;2022-11-20T08:53:33;6.90;;;4.00;;
65583;SDS011;62116;43.582;1.470;2022-11-20T08:55:59;8.95;;;4.20;;
65583;SDS011;62116;43.582;1.470;2022-11-20T08:58:24;5.50;;;3.53;;
65583;SDS011;62116;43.582;1.470;2022-11-20T09:00:50;8.10;;;3.60;;
65583;SDS011;62116;43.582;1.470;2022-11-20T09:03:16;6.57;;;3.60;;
65583;SDS011;62116;43.582;1.470;2022-11-20T09:05:41;5.88;;;3.55;;
65583;SDS011;62116;43.582;1.470;2022-11-20T09:08:07;7.32;;;3.42;;
65583;SDS011;62116;43.582;1.470;2022-11-20T09:10:33;6.68;;;3.67;;
65583;SDS011;62116;43.582;1.470;2022-11-20T09:12:59;6.40;;;3.80;;
65583;SDS011;62116;43.582;1.470;2022-11-20T09:15:24;7.47;;;4.25;;
65583;SDS011;62116;43.582;1.470;2022-11-20T09:17:54;7.45;;;4.32;;
65583;SDS011;62116;43.582;1.470;2022-11-20T09:20:21;7.17;;;4.50;;
65583;SDS011;62116;43.582;1.470;2022-11-20T09:22:46;7.10;;;4.45;;
65583;SDS011;62116;43.582;1.470;2022-11-20T09:25:12;7.20;;;4.50;;
65583;SDS011;62116;43.582;1.470;2022-11-20T09:27:37;8.20;;;5.03;;
65583;SDS011;62116;43.582;1.470;2022-11-20T09:30:03;8.48;;;4.75;;
65583;SDS011;62116;43.582;1.470;2022-11-20T09:32:29;7.80;;;4.70;;
65583;SDS011;62116;43.582;1.470;2022-11-20T09:34:54;8.95;;;5.05;;
65583;SDS011;62116;43.582;1.470;2022-11-20T09:37:20;9.77;;;4.78;;
65583;SDS011;62116;43.582;1.470;2022-11-20T09:39:46;8.25;;;4.50;;
65583;SDS011;62116;43.582;1.470;2022-11-20T09:42:17;8.70;;;4.85;;
65583;SDS011;62116;43.582;1.470;2022-11-20T09:45:24;6.88;;;4.32;;
65583;SDS011;62116;43.582;1.470;2022-11-20T09:50:32;8.20;;;4.75;;
65583;SDS011;62116;43.582;1.470;2022-11-20T09:53:27;7.45;;;4.13;;
65583;SDS011;62116;43.582;1.470;2022-11-20T09:56:02;7.38;;;3.97;;
65583;SDS011;62116;43.582;1.470;2022-11-20T09:58:40;8.48;;;4.22;;
65583;SDS011;62116;43.582;1.470;2022-11-20T10:01:15;7.68;;;4.40;;
65583;SDS011;62116;43.582;1.470;2022-11-20T10:03:49;7.40;;;4.30;;
65583;SDS011;62116;43.582;1.470;2022-11-20T10:06:22;7.50;;;4.70;;
65583;SDS011;62116;43.582;1.470;2022-11-20T10:14:16;6.78;;;4.28;;
65583;SDS011;62116;43.582;1.470;2022-11-20T10:17:02;6.55;;;4.15;;
65583;SDS011;62116;43.582;1.470;2022-11-20T10:25:20;8.40;;;5.05;;
65583;SDS011;62116;43.582;1.470;2022-11-20T10:30:22;6.45;;;3.70;;
65583;SDS011;62116;43.582;1.470;2022-11-20T10:32:54;5.60;;;3.78;;
65583;SDS011;62116;43.582;1.470;2022-11-20T10:35:32;6.68;;;4.10;;
65583;SDS011;62116;43.582;1.470;2022-11-20T10:38:20;6.70;;;4.03;;
65583;SDS011;62116;43.582;1.470;2022-11-20T10:40:56;7.85;;;3.75;;
65583;SDS011;62116;43.582;1.470;2022-11-20T10:43:44;6.13;;;3.47;;
65583;SDS011;62116;43.582;1.470;2022-11-20T10:46:13;5.68;;;3.55;;
65583;SDS011;62116;43.582;1.470;2022-11-20T10:48:42;4.38;;;2.58;;
65583;SDS011;62116;43.582;1.470;2022-11-20T11:02:41;7.15;;;3.00;;
65583;SDS011;62116;43.582;1.470;2022-11-20T11:04:58;5.82;;;3.22;;
65583;SDS011;62116;43.582;1.470;2022-11-20T11:07:36;4.93;;;2.80;;
65583;SDS011;62116;43.582;1.470;2022-11-20T11:10:13;4.97;;;2.78;;
65583;SDS011;62116;43.582;1.470;2022-11-20T11:12:43;10.50;;;4.88;;
65583;SDS011;62116;43.582;1.470;2022-11-20T11:15:25;8.30;;;3.83;;
65583;SDS011;62116;43.582;1.470;2022-11-20T11:17:51;7.63;;;3.88;;
65583;SDS011;62116;43.582;1.470;2022-11-20T11:20:18;7.13;;;3.60;;
65583;SDS011;62116;43.582;1.470;2022-11-20T11:22:51;4.78;;;2.80;;
65583;SDS011;62116;43.582;1.470;2022-11-20T11:25:29;4.18;;;2.40;;
65583;SDS011;62116;43.582;1.470;2022-11-20T11:27:59;4.65;;;2.67;;
65583;SDS011;62116;43.582;1.470;2022-11-20T11:30:30;4.35;;;2.42;;
65583;SDS011;62116;43.582;1.470;2022-11-20T11:33:10;4.63;;;2.53;;
65583;SDS011;62116;43.582;1.470;2022-11-20T11:35:46;3.53;;;2.15;;
65583;SDS011;62116;43.582;1.470;2022-11-20T11:38:44;5.75;;;2.78;;
65583;SDS011;62116;43.582;1.470;2022-11-20T11:41:10;4.63;;;2.70;;
65583;SDS011;62116;43.582;1.470;2022-11-20T11:43:48;5.00;;;2.63;;
65583;SDS011;62116;43.582;1.470;2022-11-20T11:46:35;5.88;;;3.20;;
65583;SDS011;62116;43.582;1.470;2022-11-20T11:51:36;4.07;;;2.35;;
65583;SDS011;62116;43.582;1.470;2022-11-20T11:54:50;4.95;;;2.35;;
65583;SDS011;62116;43.582;1.470;2022-11-20T11:57:54;4.80;;;2.30;;
65583;SDS011;62116;43.582;1.470;2022-11-20T12:02:35;4.13;;;2.33;;
65583;SDS011;62116;43.582;1.470;2022-11-20T12:05:23;3.92;;;2.03;;
65583;SDS011;62116;43.582;1.470;2022-11-20T12:11:04;3.20;;;2.00;;
65583;SDS011;62116;43.582;1.470;2022-11-20T12:13:53;6.88;;;2.30;;
65583;SDS011;62116;43.582;1.470;2022-11-20T12:16:23;3.95;;;2.08;;
65583;SDS011;62116;43.582;1.470;2022-11-20T12:18:50;4.38;;;2.20;;
65583;SDS011;62116;43.582;1.470;2022-11-20T12:30:09;3.38;;;1.73;;
65583;SDS011;62116;43.582;1.470;2022-11-20T12:35:36;4.63;;;1.80;;
65583;SDS011;62116;43.582;1.470;2022-11-20T12:41:15;4.30;;;2.58;;
65583;SDS011;62116;43.582;1.470;2022-11-20T12:49:57;6.10;;;3.40;;
65583;SDS011;62116;43.582;1.470;2022-11-20T12:57:54;4.72;;;2.50;;
65583;SDS011;62116;43.582;1.470;2022-11-20T13:00:23;5.45;;;2.65;;
65583;SDS011;62116;43.582;1.470;2022-11-20T13:08:08;7.88;;;2.88;;
65583;SDS011;62116;43.582;1.470;2022-11-20T13:10:44;4.68;;;1.65;;
65583;SDS011;62116;43.582;1.470;2022-11-20T13:13:22;3.28;;;1.23;;
65583;SDS011;62116;43.582;1.470;2022-11-20T13:16:10;3.75;;;1.10;;
65583;SDS011;62116;43.582;1.470;2022-11-20T13:18:45;2.65;;;1.00;;
65583;SDS011;62116;43.582;1.470;2022-11-20T13:21:53;1.70;;;0.80;;
65583;SDS011;62116;43.582;1.470;2022-11-20T13:26:46;4.07;;;1.20;;
65583;SDS011;62116;43.582;1.470;2022-11-20T13:29:16;2.53;;;1.05;;
65583;SDS011;62116;43.582;1.470;2022-11-20T13:31:44;5.55;;;1.10;;
65583;SDS011;62116;43.582;1.470;2022-11-20T13:34:22;2.00;;;1.10;;
65583;SDS011;62116;43.582;1.470;2022-11-20T13:36:51;2.08;;;1.15;;
65583;SDS011;62116;43.582;1.470;2022-11-20T13:39:25;4.32;;;1.25;;
65583;SDS011;62116;43.582;1.470;2022-11-20T13:41:56;4.45;;;1.40;;
65583;SDS011;62116;43.582;1.470;2022-11-20T13:44:24;4.30;;;1.70;;
65583;SDS011;62116;43.582;1.470;2022-11-20T13:46:54;5.05;;;1.90;;
65583;SDS011;62116;43.582;1.470;2022-11-20T13:49:30;4.22;;;1.80;;
65583;SDS011;62116;43.582;1.470;2022-11-20T14:00:31;5.35;;;2.50;;
65583;SDS011;62116;43.582;1.470;2022-11-20T14:03:01;6.75;;;2.50;;
65583;SDS011;62116;43.582;1.470;2022-11-20T14:05:36;4.85;;;2.13;;
65583;SDS011;62116;43.582;1.470;2022-11-20T14:08:04;6.22;;;2.30;;
65583;SDS011;62116;43.582;1.470;2022-11-20T14:10:35;4.95;;;2.65;;
65583;SDS011;62116;43.582;1.470;2022-11-20T14:13:10;4.50;;;2.78;;
65583;SDS011;62116;43.582;1.470;2022-11-20T14:15:40;6.38;;;2.95;;
65583;SDS011;62116;43.582;1.470;2022-11-20T14:18:12;5.43;;;2.22;;
65583;SDS011;62116;43.582;1.470;2022-11-20T14:20:39;6.15;;;2.28;;
65583;SDS011;62116;43.582;1.470;2022-11-20T14:23:07;5.82;;;1.85;;
65583;SDS011;62116;43.582;1.470;2022-11-20T14:25:35;7.25;;;2.10;;
65583;SDS011;62116;43.582;1.470;2022-11-20T14:28:01;5.07;;;1.92;;
65583;SDS011;62116;43.582;1.470;2022-11-20T14:30:29;5.57;;;1.75;;
65583;SDS011;62116;43.582;1.470;2022-11-20T14:33:03;3.53;;;1.80;;
65583;SDS011;62116;43.582;1.470;2022-11-20T14:35:30;7.10;;;2.00;;
65583;SDS011;62116;43.582;1.470;2022-11-20T14:38:02;7.00;;;2.17;;
65583;SDS011;62116;43.582;1.470;2022-11-20T14:40:32;6.28;;;1.85;;
65583;SDS011;62116;43.582;1.470;2022-11-20T14:43:15;7.85;;;2.08;;
65583;SDS011;62116;43.582;1.470;2022-11-20T14:45:42;7.95;;;1.77;;
65583;SDS011;62116;43.582;1.470;2022-11-20T14:48:08;6.90;;;2.30;;
65583;SDS011;62116;43.582;1.470;2022-11-20T14:50:35;8.13;;;1.83;;
65583;SDS011;62116;43.582;1.470;2022-11-20T14:53:03;6.25;;;1.73;;
65583;SDS011;62116;43.582;1.470;2022-11-20T14:55:32;4.13;;;1.60;;
65583;SDS011;62116;43.582;1.470;2022-11-20T14:58:21;5.28;;;1.60;;
65583;SDS011;62116;43.582;1.470;2022-11-20T15:00:55;11.18;;;1.77;;
65583;SDS011;62116;43.582;1.470;2022-11-20T15:03:23;6.50;;;1.98;;
65583;SDS011;62116;43.582;1.470;2022-11-20T15:05:55;11.35;;;1.60;;
65583;SDS011;62116;43.582;1.470;2022-11-20T15:08:20;9.45;;;1.70;;
65583;SDS011;62116;43.582;1.470;2022-11-20T15:10:47;9.32;;;2.30;;
65583;SDS011;62116;43.582;1.470;2022-11-20T15:13:19;8.25;;;1.75;;
65583;SDS011;62116;43.582;1.470;2022-11-20T15:15:49;11.65;;;1.83;;
65583;SDS011;62116;43.582;1.470;2022-11-20T15:18:27;13.13;;;1.90;;
65583;SDS011;62116;43.582;1.470;2022-11-20T15:21:02;11.60;;;1.90;;
65583;SDS011;62116;43.582;1.470;2022-11-20T15:23:29;13.93;;;2.15;;
65583;SDS011;62116;43.582;1.470;2022-11-20T15:25:54;10.63;;;1.73;;
65583;SDS011;62116;43.582;1.470;2022-11-20T15:28:21;15.27;;;1.80;;
65583;SDS011;62116;43.582;1.470;2022-11-20T15:30:58;14.00;;;1.80;;
65583;SDS011;62116;43.582;1.470;2022-11-20T15:33:24;13.25;;;2.35;;
65583;SDS011;62116;43.582;1.470;2022-11-20T15:35:50;9.02;;;1.80;;
65583;SDS011;62116;43.582;1.470;2022-11-20T15:38:15;10.32;;;1.90;;
65583;SDS011;62116;43.582;1.470;2022-11-20T15:40:41;10.65;;;2.08;;
65583;SDS011;62116;43.582;1.470;2022-11-20T15:43:06;12.80;;;2.08;;
65583;SDS011;62116;43.582;1.470;2022-11-20T15:45:45;8.40;;;1.98;;
65583;SDS011;62116;43.582;1.470;2022-11-20T15:48:16;10.68;;;1.80;;
65583;SDS011;62116;43.582;1.470;2022-11-20T15:51:26;14.05;;;2.00;;
65583;SDS011;62116;43.582;1.470;2022-11-20T15:53:35;8.45;;;1.90;;
65583;SDS011;62116;43.582;1.470;2022-11-20T15:56:05;15.90;;;2.38;;
65583;SDS011;62116;43.582;1.470;2022-11-20T15:58:31;15.75;;;2.22;;
65583;SDS011;62116;43.582;1.470;2022-11-20T16:00:57;14.02;;;2.10;;
65583;SDS011;62116;43.582;1.470;2022-11-20T16:03:22;16.75;;;2.50;;
65583;SDS011;62116;43.582;1.470;2022-11-20T16:05:48;15.02;;;2.25;;
65583;SDS011;62116;43.582;1.470;2022-11-20T16:08:13;13.23;;;2.28;;
65583;SDS011;62116;43.582;1.470;2022-11-20T16:10:39;13.95;;;2.50;;
65583;SDS011;62116;43.582;1.470;2022-11-20T16:13:09;12.63;;;2.58;;
65583;SDS011;62116;43.582;1.470;2022-11-20T16:18:22;15.30;;;2.70;;
65583;SDS011;62116;43.582;1.470;2022-11-20T16:20:49;17.10;;;2.60;;
65583;SDS011;62116;43.582;1.470;2022-11-20T16:23:16;16.27;;;3.08;;
65583;SDS011;62116;43.582;1.470;2022-11-20T16:25:43;14.05;;;3.00;;